VOTR

Tiruchirapally Civil Airport

Tiruchirappally, India
TAF VOTR 261100Z 2612/2718 14010KT 6000 SCT018 BECMG 2621/2622 VRB02KT 4000 BR BECMG 2703/2704 6000 BECMG 2712/2713 14010KT
Issued Valid From Valid To
Apr-26 @ 11:00 UTC
(3 hours ago)
Apr-26 @ 12:00 UTC
(2 hours ago)
Apr-27 @ 18:00 UTC
(-1 days ago)
Apr-26 @ 12:00 to Apr-26 @ 21:00
TAF VOTR 261100Z 2612/2718 14010KT 6000 SCT018
Wind Visibility Clouds
140° at 10 knots 6,003 meters
  • Scattered at 1,800' AGL
Becoming Apr-26 @ 21:00 to Apr-27 @ 03:00
BECMG 2621/2622 VRB02KT 4000 BR
Wind Visibility Clouds Conditions
Variable at 2 knots 4,007 meters
  • Scattered at 1,800' AGL
  • Mist
Becoming Apr-27 @ 03:00 to Apr-27 @ 12:00
BECMG 2703/2704 6000
Wind Visibility Clouds Conditions
Variable at 2 knots 6,003 meters
  • Scattered at 1,800' AGL
  • Mist
Becoming Apr-27 @ 12:00 to Apr-27 @ 18:00
BECMG 2712/2713 14010KT
Wind Visibility Clouds Conditions
140° at 10 knots 6,003 meters
  • Scattered at 1,800' AGL
  • Mist
TAF VOTR 261100Z 2612/2718 14010KT 6000 SCT018 BECMG 2621/2622 VRB02KT 4000 BR BECMG 2703/2704 6000 BECMG 2712/2713 14010KT
Issued Apr-26 @ 11:00 UTC
(3 hours ago)
Valid From Apr-26 @ 12:00 UTC
(2 hours ago)
Valid To Apr-27 @ 18:00 UTC
(-1 days ago)
Apr-26 @ 12:00 - Apr-26 @ 21:00
Wind Visibility
140° at 10 knots 6,003 meters
Clouds
  • Scattered at 1,800' AGL
Becoming Apr-26 @ 21:00 - Apr-27 @ 03:00
Wind Visibility
Variable at 2 knots 4,007 meters
Clouds
  • Scattered at 1,800' AGL
Conditions
  • Mist
Becoming Apr-27 @ 03:00 - Apr-27 @ 12:00
Wind Visibility
Variable at 2 knots 6,003 meters
Clouds
  • Scattered at 1,800' AGL
Conditions
  • Mist
Becoming Apr-27 @ 12:00 - Apr-27 @ 18:00
Wind Visibility
140° at 10 knots 6,003 meters
Clouds
  • Scattered at 1,800' AGL
Conditions
  • Mist